Latest Coastal Weather Observations for Port Macquarie Airport

IDN60701

Issued at 12:32 pm EDT Tuesday 22 October 2019 (issued every 10 minutes, with the page automatically refreshed every 10 minutes)

About coastal observations | Map of coastal stations | Coastal observations for NSW | Marine services | Other Formats
Station Details ID: 060139 Name: PORT MACQUARIE AIRPORT AWS Lat: -31.43 Lon: 152.87 Height: 4.2 m
Data from the previous 72 hours. | See also: Recent months at Port Macquarie Airport
Date/Time
EDT
Wind Sea
Height
m
Swell Vis
km
Cloud Weather Temp
°C
Press
hPa
Rain since
9am
mm
Dir  Spd
kts
Gust
kts
Height
m
Period
s
Dir
22/12:30pm ENE 11 14 - - - - 10 Clear - 22.8 1024.3 0.0
22/12:00pm ENE 11 14 - - - - 10 - - 22.1 1024.7 0.0
22/11:30am ENE 10 14 - - - - 10 - - 22.1 1025.0 0.0
22/11:00am NNE 7 11 - - - - 10 - - 22.8 1025.3 0.0
22/10:30am N 4 7 - - - - 10 - - 21.7 1025.8 0.0
22/10:00am NE 4 7 - - - - 10 - - 21.4 1026.0 0.0
22/09:30am NNW 3 7 - - - - 10 - - 20.5 1026.0 0.0
22/09:00am WNW 4 7 - - - - 10 - - 18.4 1026.1 0.0
22/08:30am W 6 9 - - - - 10 - - 17.1 1025.9 0.0
22/08:00am WNW 6 8 - - - - 10 - - 15.4 1025.8 0.0
22/07:30am W 4 5 - - - - 10 - - 13.5 1025.7 0.0
22/07:00am WNW 3 4 - - - - 10 - - 11.6 1025.6 0.0
22/06:30am CALM 0 0 - - - - 10 - - 8.5 1025.3 0.0
22/06:00am CALM 0 3 - - - - 10 - - 9.6 1024.9 0.0
22/05:30am CALM 0 0 - - - - 10 - - 8.6 1024.8 0.0
22/05:00am CALM 0 0 - - - - 10 - - 8.6 1024.5 0.0
22/04:30am WNW 2 5 - - - - 10 - - 7.6 1024.3 0.0
22/04:14am CALM 0 0 - - - - 7 - - 7.3 1024.3 0.0
22/04:00am CALM 0 0 - - - - 1 - - 7.5 1024.3 0.0
22/03:30am CALM 0 0 - - - - 2 - - 7.4 1024.4 0.0
22/03:00am CALM 0 0 - - - - 4 - - 8.6 1024.6 0.0
22/02:30am CALM 0 0 - - - - 5 Partly cloudy - 8.8 1024.8 0.0
22/02:00am CALM 0 0 - - - - 5 Partly cloudy - 8.4 1025.0 0.0
22/01:30am CALM 0 0 - - - - 1 - - 8.7 1025.3 0.0
22/01:00am CALM 0 0 - - - - 3 - - 9.2 1025.5 0.0
22/12:30am CALM 0 0 - - - - 3 - - 9.0 1025.8 0.0
22/12:03am CALM 0 0 - - - - 5 - - 9.5 1026.0 0.0
22/12:00am CALM 0 0 - - - - 6 - - 8.8 1026.0 0.0
 
Date/Time
EDT
Wind Sea
Height
m
Swell Vis
km
Cloud Weather Temp
°C
Press
hPa
Rain since
9am
mm
Dir  Spd
kts
Gust
kts
Height
m
Period
s
Dir
21/11:47pm CALM 0 0 - - - - 8 - - 10.1 1026.1 0.0
21/11:30pm CALM 0 0 - - - - 5 - - 10.1 1026.2 0.0
21/11:28pm CALM 0 0 - - - - 5 - - 10.3 1026.2 0.0
21/11:00pm CALM 0 0 - - - - 10 - - 9.9 1026.4 0.0
21/10:30pm CALM 0 0 - - - - 10 - - 10.4 1026.4 0.0
21/10:00pm CALM 0 0 - - - - 10 - - 11.1 1026.5 0.0
21/09:30pm CALM 0 0 - - - - 9 - - 12.0 1026.6 0.0
21/09:00pm ESE 1 3 - - - - 10 - - 13.1 1026.5 0.0
21/08:30pm ESE 3 3 - - - - 10 - - 13.7 1026.3 0.0
21/08:00pm CALM 0 0 - - - - 10 - - 15.2 1026.0 0.0
21/07:30pm E 3 5 - - - - 10 - - 17.3 1025.7 0.0
21/07:00pm ENE 6 8 - - - - 10 - - 18.9 1025.3 0.0
21/06:30pm ENE 8 11 - - - - 10 - - 19.6 1025.1 0.0
21/06:00pm ENE 9 13 - - - - 10 - - 20.1 1024.7 0.0
21/05:30pm ENE 10 13 - - - - 10 - - 20.5 1024.5 0.0
21/05:00pm E 9 13 - - - - 10 - - 20.8 1024.5 0.0
21/04:30pm E 11 15 - - - - 10 - - 21.1 1024.5 0.0
21/04:00pm ESE 12 16 - - - - 10 - - 21.5 1024.4 0.0
21/03:30pm E 13 17 - - - - 10 - - 21.6 1024.5 0.0
21/03:00pm ENE 11 15 - - - - 10 - - 22.5 1024.6 0.0
21/02:30pm ENE 11 14 - - - - 10 - - 22.7 1024.9 0.0
21/02:00pm E 11 14 - - - - 10 - - 22.4 1025.2 0.0
21/01:30pm NE 11 16 - - - - 10 - - 21.6 1025.4 0.0
21/01:00pm NE 12 16 - - - - 10 - - 21.3 1025.6 0.0
21/12:30pm ENE 9 13 - - - - 10 - - 22.1 1025.9 0.0
21/12:00pm NE 8 11 - - - - 10 - - 21.9 1026.3 0.0
21/11:30am ENE 7 9 - - - - 10 Partly cloudy - 21.8 1026.6 0.0
21/11:00am E 8 13 - - - - 10 Cloudy - 20.5 1026.9 0.0
21/10:30am ENE 3 5 - - - - 10 Partly cloudy - 19.7 1027.0 0.0
21/10:00am NE 6 8 - - - - 10 Partly cloudy - 19.5 1027.0 0.0
21/09:30am N 4 6 - - - - 10 - - 19.5 1026.9 0.0
21/09:00am W 4 6 - - - - 10 - - 18.6 1026.8 0.0
21/08:30am WNW 6 7 - - - - 10 - - 17.1 1026.6 0.0
21/08:00am WNW 6 8 - - - - 10 - - 14.9 1026.5 0.0
21/07:30am WNW 4 6 - - - - 10 - - 12.8 1026.3 0.0
21/07:00am W 1 4 - - - - 10 - - 10.1 1026.0 0.0
21/06:57am W 1 4 - - - - 9 - - 9.8 1026.0 0.0
21/06:30am CALM 0 0 - - - - 0.3 - - 6.3 1025.7 0.0
21/06:00am CALM 0 0 - - - - 2 - - 6.3 1025.3 0.0
21/05:30am CALM 0 0 - - - - 0.5 - - 5.8 1025.1 0.0
21/05:00am CALM 0 0 - - - - 2 - - 6.1 1025.0 0.0
21/04:30am W 1 3 - - - - 5 - - 6.6 1024.8 0.0
21/04:00am CALM 0 0 - - - - 3 - - 6.3 1024.6 0.0
21/03:30am CALM 0 0 - - - - 7 - - 7.0 1024.5 0.0
21/03:00am CALM 0 0 - - - - 0.2 - - 7.0 1024.6 0.0
21/02:30am CALM 0 0 - - - - 0.9 - - 8.1 1024.5 0.0
21/02:09am CALM 0 0 - - - - 5 - - 7.9 1024.6 0.0
21/02:00am CALM 0 0 - - - - 7 - - 7.4 1024.8 0.0
21/01:31am CALM 0 0 - - - - 6 - - 8.6 1024.9 0.0
21/01:30am CALM 0 0 - - - - 6 - - 8.7 1024.9 0.0
21/01:00am CALM 0 0 - - - - 4 - - 8.5 1025.2 0.0
21/12:38am CALM 0 0 - - - - 5 - - 9.6 1025.2 0.0
21/12:30am CALM 0 0 - - - - 7 - - 9.1 1025.2 0.0
21/12:00am CALM 0 0 - - - - 9 - - 9.4 1025.1 0.0
 
Date/Time
EDT
Wind Sea
Height
m
Swell Vis
km
Cloud Weather Temp
°C
Press
hPa
Rain since
9am
mm
Dir  Spd
kts
Gust
kts
Height
m
Period
s
Dir
20/11:30pm CALM 0 0 - - - - 10 - - 11.0 1025.1 0.0
20/11:00pm CALM 0 0 - - - - 10 - - 12.8 1025.2 0.0
20/10:30pm WNW 2 3 - - - - 10 Partly cloudy - 13.7 1025.4 0.0
20/10:00pm CALM 0 1 - - - - 10 Partly cloudy - 13.4 1025.4 0.0
20/09:30pm SW 4 5 - - - - 10 Partly cloudy - 12.7 1025.3 0.0
20/09:00pm SW 4 4 - - - - 10 Mostly clear - 12.2 1024.9 0.0
20/08:30pm SSW 3 4 - - - - 10 - - 13.2 1024.3 0.0
20/08:00pm CALM 0 3 - - - - 10 - - 14.8 1023.7 0.0
20/07:30pm SE 5 5 - - - - 10 - - 15.7 1023.4 0.0
20/07:00pm ESE 4 5 - - - - 10 - - 17.2 1022.9 0.0
20/06:30pm ESE 5 8 - - - - 10 Partly cloudy - 18.0 1022.3 0.0
20/06:00pm ESE 7 11 - - - - 10 Mostly cloudy - 18.9 1022.0 0.0
20/05:30pm ESE 7 11 - - - - 10 Partly cloudy - 19.0 1021.6 0.0
20/05:00pm ESE 11 14 - - - - 10 Partly cloudy - 19.8 1021.2 0.0
20/04:30pm SE 8 12 - - - - 10 Partly cloudy - 19.6 1021.1 0.0
20/04:00pm SSE 10 14 - - - - 10 Partly cloudy - 20.3 1020.9 0.0
20/03:30pm SE 10 15 - - - - 10 - - 20.9 1020.8 0.0
20/03:00pm ESE 12 15 - - - - 10 - - 21.1 1020.7 0.0
20/02:30pm SSE 13 20 - - - - 10 Partly cloudy - 20.5 1020.8 0.0
20/02:00pm SE 13 19 - - - - 10 Partly cloudy - 20.7 1020.9 0.0
20/01:30pm SE 13 20 - - - - 10 - - 20.8 1020.9 0.0
20/01:00pm SSE 12 19 - - - - 10 Partly cloudy - 20.7 1020.9 0.0
20/12:30pm SE 15 20 - - - - 10 Partly cloudy - 20.9 1021.2 0.0
20/12:00pm S 15 20 - - - - 10 Partly cloudy - 21.0 1021.4 0.0
20/11:30am S 12 18 - - - - 10 Partly cloudy - 21.1 1021.4 0.0
20/11:00am SSE 13 19 - - - - 10 Partly cloudy - 20.6 1021.5 0.0
20/10:30am S 12 17 - - - - 10 Partly cloudy - 20.3 1021.4 0.0
20/10:00am S 11 16 - - - - 10 Partly cloudy - 20.1 1021.3 0.0
20/09:30am S 12 17 - - - - 10 Partly cloudy - 20.9 1021.3 0.0
20/09:00am SSW 11 15 - - - - 10 Partly cloudy - 19.6 1021.1 0.0
20/08:30am SSW 10 15 - - - - 10 - - 19.2 1020.8 0.0
20/08:00am SSW 9 12 - - - - 10 - - 18.8 1020.5 0.0
20/07:30am SW 9 12 - - - - 10 - - 17.8 1020.2 0.0
20/07:00am SW 6 8 - - - - 10 Partly cloudy - 15.8 1019.7 0.0
20/06:30am WSW 4 6 - - - - 10 Partly cloudy - 15.6 1019.3 0.0
20/06:00am SW 7 11 - - - - 10 Mostly clear - 16.2 1018.9 0.0
20/05:30am SW 9 14 - - - - 10 Partly cloudy - 16.7 1018.3 0.0
20/05:00am SSW 8 14 - - - - 10 Partly cloudy - 16.9 1017.8 0.0
20/04:30am SSW 11 18 - - - - 10 - - 17.5 1017.3 0.0
20/04:00am SW 14 20 - - - - 10 - - 17.7 1016.8 0.0
20/03:30am SW 14 21 - - - - 10 - - 18.2 1016.8 0.0
20/03:00am SW 8 12 - - - - 10 Mostly clear - 17.4 1016.6 0.0
20/02:30am SSW 9 13 - - - - 10 - - 18.2 1016.2 0.0
20/02:00am SSW 9 13 - - - - 10 - - 17.9 1016.1 0.0
20/01:30am SW 10 13 - - - - 10 - - 16.1 1016.1 0.0
20/01:24am SW 10 13 - - - - 10 - - 15.8 1016.0 0.0
20/01:05am SW 6 9 - - - - 10 - - 10.8 1016.0 0.0
20/01:00am SSW 6 8 - - - - 10 - - 10.3 1015.9 0.0
20/12:30am WSW 4 5 - - - - 4 - - 10.9 1015.5 0.0
20/12:24am WSW 3 5 - - - - 5 - - 10.7 1015.4 0.0
20/12:00am CALM 0 0 - - - - 10 - - 11.8 1015.5 0.0
 
Date/Time
EDT
Wind Sea
Height
m
Swell Vis
km
Cloud Weather Temp
°C
Press
hPa
Rain since
9am
mm
Dir  Spd
kts
Gust
kts
Height
m
Period
s
Dir
19/11:51pm NNW 1 4 - - - - 9 - - 12.1 1015.5 0.0
19/11:32pm SSW 5 11 - - - - 5 - - 11.6 1015.6 0.0
19/11:30pm SSW 3 9 - - - - 9 - - 10.7 1015.4 0.0
19/11:00pm CALM 0 0 - - - - 10 - - 12.4 1014.7 0.0
19/10:30pm SE 4 6 - - - - 10 - - 11.1 1014.8 0.0
19/10:00pm N 5 6 - - - - 10 - - 15.9 1014.6 0.0
19/09:30pm NNW 3 5 - - - - 10 - - 14.7 1014.6 0.0
19/09:00pm NNW 4 5 - - - - 10 - - 16.5 1014.4 0.0
19/08:30pm NNE 3 5 - - - - 10 - - 17.7 1014.2 0.0
19/08:00pm N 4 5 - - - - 10 - - 19.0 1013.9 0.0
19/07:30pm NE 5 7 - - - - 10 - - 20.1 1013.7 0.0
19/07:00pm NNE 6 8 - - - - 10 - - 20.8 1013.5 0.0
19/06:30pm NNE 7 10 - - - - 10 - - 22.2 1013.1 0.0
19/06:00pm NE 7 9 - - - - 10 - - 23.1 1012.9 0.0
19/05:30pm NE 9 13 - - - - 10 - - 23.3 1012.7 0.0
19/05:00pm NE 10 14 - - - - 10 - - 23.6 1012.6 0.0
19/04:30pm ENE 9 12 - - - - 10 - - 24.4 1012.6 0.0
19/04:00pm E 11 15 - - - - 10 - - 25.2 1012.3 0.0
19/03:30pm ESE 11 15 - - - - 10 - - 25.7 1012.4 0.0
19/03:00pm ENE 10 14 - - - - 10 - - 25.9 1012.8 0.0
19/02:30pm E 10 15 - - - - 10 - - 26.0 1013.2 0.0
19/02:00pm ENE 11 14 - - - - 10 - - 25.0 1013.6 0.0
19/01:30pm E 11 15 - - - - 10 - - 26.2 1013.9 0.0
19/01:00pm ENE 12 16 - - - - 10 - - 25.5 1014.2 0.0

Other formats

Comma delimited format used in spreadsheet applications
http://www.bom.gov.au/fwo/IDN60701/IDN60701.94786.axf

JavaScript Object Notation format (JSON) in row-major order
http://www.bom.gov.au/fwo/IDN60701/IDN60701.94786.json

Data quality

Most of these data are generated automatically and are frequently updated. Quality checks on data are not normally performed. It is possible for incorrect values to appear. Refer to information at About Latest Weather Observations and please check the disclaimer before using these data.